Jepson Prairie Reserve, California Weather observations

Data are for 10 minute period ending at time listed.
 Day   Time   Solar   Ave.   Ave.  Ave.  Vector  Max.   Baro.   Total    
  of    of     Rad.   Air    Rel.  Wind   Wind   Wind  Press.  Precip.   
Year   Day            Temp.  Hum.  Speed  Dir.   Gust                    
2016   (PST)  Kw/m2    F      %     mph   deg.    mph    mb.     in.     
-------------------------------------------------------------------------
 147   11:10   0.90   74.4    50    8.9   232    13.4   1015.6    0.00 
 147   11:20   0.91   74.6    49    6.7   243    14.3   1015.6    0.00 
 147   11:30   0.91   75.1    50    7.6   260    17.0   1015.6    0.00 
 147   11:40   0.92   76.0    48   10.4   237    15.6   1015.6    0.00 
 147   11:50   0.93   76.5    48    8.3   228    15.1   1015.6    0.00 
 147   12:00   0.93   76.7    47    8.5   198    16.4   1015.2    0.00 
 147   12:10   0.93   77.2    46    8.7   213    12.9   1015.2    0.00 
 147   12:20   0.93   77.8    45    7.6   209    12.1   1014.9    0.00 
 147   12:30   0.93   78.7    44    9.2   238    15.3   1014.9    0.00 
 147   12:40   0.93   78.8    44    6.6   231    14.5   1014.9    0.00 
 147   12:50   0.91   80.2    45   10.2   232    17.0   1014.6    0.00 
 147   13:00   0.91   80.3    44    9.1   231    17.2   1014.6    0.00 
 147   13:10   0.90   79.8    42    7.8   228    13.1   1014.6    0.00 
 147   13:20   0.89   79.2    43    8.3   225    14.7   1014.2    0.00 
 147   13:30   0.88   80.0    42    8.9   206    14.3   1014.2    0.00 
 147   13:40   0.87   80.7    42   10.5   189    17.0   1013.9    0.00 
 147   13:50   0.85   80.9    41   11.5   205    16.6   1013.9    0.00 
 147   14:00   0.84   81.5    40   11.9   203    18.4   1013.5    0.00 
 147   14:10   0.82   81.4    40   12.5   206    17.9   1013.5    0.00 
 147   14:20   0.78   81.3    41   15.3   202    22.1   1013.2    0.00 
 147   14:30   0.78   81.7    40   15.1   213    20.0   1013.2    0.00 
 147   14:40   0.75   81.4    39   14.8   219    20.7   1013.2    0.00 
 147   14:50   0.72   81.9    38   15.5   219    21.0   1012.9    0.00 
 147   15:00   0.72   81.8    39   16.0   211    21.3   1012.9    0.00 
 147   15:10   0.69   81.8    39   17.6   209    22.6   1012.5    0.00 
 147   15:20   0.67   81.8    39   16.4   213    22.9   1012.5    0.00 
 147   15:30   0.64   81.7    39   18.2   211    23.2   1012.5    0.00 
 147   15:40   0.62   81.7    40   18.1   219    23.8   1012.5    0.00 
 147   15:50   0.59   81.2    40   19.2   228    24.5   1012.2    0.00 
 147   16:00   0.56   80.9    41   18.5   218    23.0   1012.2    0.00 
 147   16:10   0.52   80.2    42   19.8   214    24.9   1012.2    0.00 
 147   16:20   0.49   79.2    43   21.4   225    27.5   1012.2    0.00 
 147   16:30   0.46   78.6    44   19.8   225    25.6   1012.2    0.00 
 147   16:40   0.43   78.0    45   20.3   228    28.3   1011.9    0.00 
 147   16:50   0.40   76.9    46   21.4   228    26.5   1011.9    0.00 
 147   17:00   0.35   76.5    46   21.0   226    26.5   1011.9    0.00 
 147   17:10   0.34   76.1    47   21.3   229    26.5   1011.9    0.00 
 147   17:20   0.30   75.5    47   20.0   227    26.2   1011.9    0.00 
 147   17:30   0.27   75.1    48   20.2   221    25.3   1011.9    0.00 
 147   17:40   0.24   74.4    48   19.6   220    25.6   1011.9    0.00 
 147   17:50   0.21   73.6    49   18.9   224    26.4   1011.9    0.00 
 147   18:00   0.18   72.4    50   20.3   227    26.5   1011.9    0.00 
 147   18:10   0.15   71.6    51   19.2   222    25.6   1011.9    0.00 
 147   18:20   0.12   70.9    51   19.1   219    25.1   1011.9    0.00 
 147   18:30   0.10   70.3    52   18.3   213    22.3   1011.9    0.00 
 147   18:40   0.07   69.8    52   17.8   210    22.9   1011.9    0.00 
 147   18:50   0.05   69.1    52   16.8   212    22.9   1011.9    0.00 
 147   19:00   0.03   68.2    53   18.5   216    23.2   1011.5    0.00 
 147   19:10   0.02   67.2    54   16.5   216    23.2   1011.5    0.00 
 147   19:20   0.01   66.1    56   13.1   206    17.3   1011.9    0.00 
 147   19:30   0.00   64.8    60   12.2   216    15.1   1011.9    0.00 
 147   19:40   0.00   64.1    65   13.2   212    17.0   1011.9    0.00 
 147   19:50   0.00   63.2    66   14.2   219    18.6   1011.5    0.00 
 147   20:00   0.00   62.3    66   13.1   218    16.1   1011.5    0.00 
 147   20:10   0.00   61.6    66   13.1   216    15.6   1011.5    0.00 
 147   20:20   0.00   61.5    65   13.5   212    17.7   1011.5    0.00 
 147   20:30   0.00   61.0    67   13.9   216    16.8   1011.5    0.00 
 147   20:40   0.00   60.6    70   14.6   215    17.7   1011.5    0.00 
 147   20:50   0.00   60.4    71   14.4   209    17.7   1011.5    0.00 
 147   21:00   0.00   59.9    72   14.7   203    20.5   1011.5    0.00 
 147   21:10   0.00   59.4    72   17.2   206    21.8   1011.5    0.00 
 147   21:20   0.00   59.1    72   18.0   209    24.0   1011.5    0.00 
 147   21:30   0.00   58.8    72   18.4   209    22.5   1011.5    0.00 
 147   21:40   0.00   58.3    74   18.3   211    23.9   1011.5    0.00 
 147   21:50   0.00   58.2    73   18.6   209    23.5   1011.5    0.00 
 147   22:00   0.00   58.2    73   19.2   211    24.0   1011.5    0.00 
 147   22:10   0.00   58.2    73   17.8   209    22.9   1011.2    0.00 
 147   22:20   0.00   57.8    74   16.0   208    20.9   1011.2    0.00 
 147   22:30   0.00   57.8    75   17.4   212    22.6   1011.2    0.00 
 147   22:40   0.00   57.7    75   16.7   210    20.3   1011.2    0.00 
 147   22:50   0.00   57.5    76   15.9   209    20.8   1011.2    0.00 
 147   23:00   0.00   57.3    76   14.7   208    20.6   1011.2    0.00 
 147   23:10   0.00   57.1    77   15.4   205    21.6   1011.2    0.00 
 147   23:20   0.00   57.0    77   16.3   210    23.6   1011.2    0.00 
 147   23:30   0.00   57.0    77   18.1   209    24.9   1011.2    0.00 
 147   23:40   0.00   56.9    77   17.8   210    22.9   1011.2    0.00 
 147   23:50   0.00   56.8    77   16.4   212    20.8   1011.2    0.00 
 148    0:00   0.00   56.4    77   15.1   216    20.0   1011.2    0.00 
 148    0:10   0.00   56.2    76   16.1   217    19.8   1010.8    0.00 
 148    0:20   0.00   55.7    77   13.9   215    16.8   1010.8    0.00 
 148    0:30   0.00   55.1    79   13.8   217    17.1   1010.8    0.00 
 148    0:40   0.00   54.9    80   15.3   218    19.4   1010.5    0.00 
 148    0:50   0.00   55.3    79   17.4   218    22.8   1010.5    0.00 
 148    1:00   0.00   55.3    78   15.9   216    20.8   1010.5    0.00 
 148    1:10   0.00   54.9    79   14.3   217    17.4   1010.5    0.00 
 148    1:20   0.00   55.0    80   15.7   218    20.0   1010.5    0.00 
 148    1:30   0.00   55.0    81   17.7   222    22.4   1010.2    0.00 
 148    1:40   0.00   54.6    83   17.6   223    22.4   1010.2    0.00 
 148    1:50   0.00   54.4    84   17.5   220    23.2   1010.2    0.00 
 148    2:00   0.00   54.7    84   19.5   218    24.7   1010.2    0.00 
 148    2:10   0.00   54.8    84   19.1   220    25.4   1010.2    0.00 
 148    2:20   0.00   54.6    84   18.4   220    24.4   1010.2    0.00 
 148    2:30   0.00   54.4    85   19.2   221    24.0   1010.2    0.00 
 148    2:40   0.00   54.4    85   18.4   220    24.1   1010.2    0.00 
 148    2:50   0.00   54.3    85   17.2   218    23.1   1010.2    0.00 
 148    3:00   0.00   54.1    86   16.9   217    22.6   1010.2    0.00 
 148    3:10   0.00   53.8    87   15.1   216    18.9   1010.2    0.00 
 148    3:20   0.00   53.7    87   16.1   219    20.9   1010.2    0.00 
 148    3:30   0.00   53.8    87   15.0   217    18.9   1010.2    0.00 
 148    3:40   0.00   53.4    88   15.0   221    19.0   1010.2    0.00 
 148    3:50   0.00   53.4    88   14.9   226    18.9   1010.2    0.00 
 148    4:00   0.00   53.5    88   13.4   223    18.6   1010.2    0.00 
 148    4:10   0.00   53.5    88   14.3   225    20.1   1010.2    0.00 
 148    4:20   0.00   53.5    88   15.9   224    23.3   1010.2    0.00 
 148    4:30   0.00   53.6    88   14.0   219    21.0   1010.2    0.00 
 148    4:40   0.00   53.4    89   13.8   221    17.2   1010.5    0.00 
 148    4:50   0.00   53.4    89   14.3   222    19.2   1010.5    0.00 
 148    5:00   0.01   53.5    89   15.1   222    20.3   1010.5    0.00 
 148    5:10   0.02   53.5    89   13.5   224    17.8   1010.8    0.00 
 148    5:20   0.04   53.7    89   12.0   224    17.5   1010.8    0.00 
 148    5:30   0.06   54.0    89   12.8   222    17.5   1010.8    0.00 
 148    5:40   0.08   54.7    87   14.0   222    18.6   1010.8    0.00 
 148    5:50   0.10   55.4    85   12.4   221    18.7   1011.2    0.00 
 148    6:00   0.13   56.1    84   12.0   222    17.0   1011.2    0.00 
 148    6:10   0.16   56.8    82   11.0   224    15.0   1011.2    0.00 
 148    6:20   0.19   57.2    81   13.7   228    18.9   1011.5    0.00 
 148    6:30   0.23   57.9    79   14.4   228    19.0   1011.5    0.00 
 148    6:40   0.26   58.6    77   13.1   231    17.2   1011.5    0.00 
 148    6:50   0.29   59.7    75   13.1   232    16.4   1011.5    0.00 
 148    7:00   0.32   60.6    73   11.5   228    14.9   1011.9    0.00 
 148    7:10   0.35   61.6    71   10.4   225    13.3   1011.9    0.00 
 148    7:20   0.39   63.2    68    8.9   236    11.8   1011.9    0.00 
 148    7:30   0.42   64.7    66    8.5   265    13.9   1012.2    0.00 
 148    7:40   0.45   64.3    70    8.8   303    14.0   1012.2    0.00 
 148    7:50   0.48   64.9    68    8.2   295    13.3   1012.2    0.00 
 148    8:00   0.51   65.6    67    7.7   301    13.9   1012.2    0.00 
 148    8:10   0.54   66.3    65    8.2   305    12.9   1012.5    0.00 
 148    8:20   0.57   67.2    63    7.7   313    11.9   1012.5    0.00 
 148    8:30   0.60   68.0    62    7.1   328    11.5   1012.5    0.00 
 148    8:40   0.63   68.4    60    7.1   350    10.8   1012.9    0.00 
 148    8:50   0.65   69.4    58    4.8   350     8.6   1012.5    0.00 
 148    9:00   0.68   70.2    57    7.0     6    10.1   1012.5    0.00 
 148    9:10   0.71   71.1    56    5.3    13     9.9   1012.2    0.00 
 148    9:20   0.73   72.6    54    5.4    16     8.9   1012.2    0.00 
 148    9:30   0.76   73.5    53    4.2   360     9.3   1012.2    0.00 
 148    9:40   0.78   75.5    51    5.1     5     8.9   1012.2    0.00 
 148    9:50   0.80   77.1    50    4.8   360     9.2   1011.9    0.00 
 148   10:00   0.82   76.8    49    7.6   358    11.9   1011.9    0.00 
 148   10:10   0.83   77.1    49    7.1   336    12.5   1011.9    0.00 
 148   10:20   0.85   80.3    48    8.2   357    13.4   1011.5    0.00 
 148   10:30   0.86   82.8    48    6.7   349    10.8   1011.5    0.00 
 148   10:40   0.88   81.6    46    5.9     1    11.8   1011.5    0.00 
 148   10:50   0.89   80.8    43    6.9   345    13.1   1011.5    0.00 
 148   11:00   0.90   80.1    43    7.3   327    12.5   1011.5    0.00 

Return to Jepson Prairie Reserve graphs page.


Western Regional Climate Center,wrcc@dri.edu